sensor_id;sensor_type;location;lat;lon;timestamp;temperature;humidity
18794;DHT22;29610;49.022;12.114;2023-02-28T00:00:38;-2.40;95.10
18794;DHT22;29610;49.022;12.114;2023-02-28T00:03:06;-2.40;95.00
18794;DHT22;29610;49.022;12.114;2023-02-28T00:05:35;-2.30;94.90
18794;DHT22;29610;49.022;12.114;2023-02-28T00:08:04;-2.30;94.90
18794;DHT22;29610;49.022;12.114;2023-02-28T00:10:33;-2.40;94.90
18794;DHT22;29610;49.022;12.114;2023-02-28T00:13:03;-2.30;94.90
18794;DHT22;29610;49.022;12.114;2023-02-28T00:15:34;-2.30;94.90
18794;DHT22;29610;49.022;12.114;2023-02-28T00:18:04;-2.40;95.00
18794;DHT22;29610;49.022;12.114;2023-02-28T00:20:33;-2.40;95.00
18794;DHT22;29610;49.022;12.114;2023-02-28T00:23:01;-2.40;95.00
18794;DHT22;29610;49.022;12.114;2023-02-28T00:25:30;-2.40;95.00
18794;DHT22;29610;49.022;12.114;2023-02-28T00:27:58;-2.40;95.10
18794;DHT22;29610;49.022;12.114;2023-02-28T00:30:27;-2.40;95.10
18794;DHT22;29610;49.022;12.114;2023-02-28T00:32:55;-2.40;95.20
18794;DHT22;29610;49.022;12.114;2023-02-28T00:35:25;-2.50;95.10
18794;DHT22;29610;49.022;12.114;2023-02-28T00:37:54;-2.40;95.20
18794;DHT22;29610;49.022;12.114;2023-02-28T00:40:23;-2.40;95.20
18794;DHT22;29610;49.022;12.114;2023-02-28T00:42:52;-2.40;95.20
18794;DHT22;29610;49.022;12.114;2023-02-28T00:45:21;-2.50;95.20
18794;DHT22;29610;49.022;12.114;2023-02-28T00:47:50;-2.50;95.20
18794;DHT22;29610;49.022;12.114;2023-02-28T00:50:20;-2.50;95.30
18794;DHT22;29610;49.022;12.114;2023-02-28T00:52:50;-2.50;95.40
18794;DHT22;29610;49.022;12.114;2023-02-28T00:55:20;-2.60;95.30
18794;DHT22;29610;49.022;12.114;2023-02-28T00:57:48;-2.50;95.40
18794;DHT22;29610;49.022;12.114;2023-02-28T01:00:17;-2.50;95.40
18794;DHT22;29610;49.022;12.114;2023-02-28T01:02:47;-2.60;95.40
18794;DHT22;29610;49.022;12.114;2023-02-28T01:05:15;-2.60;95.40
18794;DHT22;29610;49.022;12.114;2023-02-28T01:07:44;-2.50;95.60
18794;DHT22;29610;49.022;12.114;2023-02-28T01:10:15;-2.10;95.90
18794;DHT22;29610;49.022;12.114;2023-02-28T01:12:44;-2.70;95.70
18794;DHT22;29610;49.022;12.114;2023-02-28T01:15:15;-2.70;95.80
18794;DHT22;29610;49.022;12.114;2023-02-28T01:17:44;-2.70;96.00
18794;DHT22;29610;49.022;12.114;2023-02-28T01:20:13;-2.70;95.80
18794;DHT22;29610;49.022;12.114;2023-02-28T01:22:42;-2.70;95.80
18794;DHT22;29610;49.022;12.114;2023-02-28T01:25:12;-2.90;95.70
18794;DHT22;29610;49.022;12.114;2023-02-28T01:27:42;-2.80;96.10
18794;DHT22;29610;49.022;12.114;2023-02-28T01:30:11;-2.70;95.90
18794;DHT22;29610;49.022;12.114;2023-02-28T01:32:40;-2.70;95.90
18794;DHT22;29610;49.022;12.114;2023-02-28T01:35:09;-2.70;95.90
18794;DHT22;29610;49.022;12.114;2023-02-28T01:37:37;-2.80;95.90
18794;DHT22;29610;49.022;12.114;2023-02-28T01:40:07;-2.80;95.90
18794;DHT22;29610;49.022;12.114;2023-02-28T01:42:37;-2.80;96.00
18794;DHT22;29610;49.022;12.114;2023-02-28T01:45:21;-2.80;96.00
18794;DHT22;29610;49.022;12.114;2023-02-28T01:47:55;-2.80;96.10
18794;DHT22;29610;49.022;12.114;2023-02-28T01:50:31;-2.80;96.10
18794;DHT22;29610;49.022;12.114;2023-02-28T01:53:06;-2.80;96.10
18794;DHT22;29610;49.022;12.114;2023-02-28T01:55:37;-2.90;96.10
18794;DHT22;29610;49.022;12.114;2023-02-28T01:58:08;-2.90;96.20
18794;DHT22;29610;49.022;12.114;2023-02-28T02:00:38;-2.90;96.20
18794;DHT22;29610;49.022;12.114;2023-02-28T02:03:12;-2.90;96.30
18794;DHT22;29610;49.022;12.114;2023-02-28T02:05:43;-2.90;96.30
18794;DHT22;29610;49.022;12.114;2023-02-28T02:08:17;-2.90;96.20
18794;DHT22;29610;49.022;12.114;2023-02-28T02:10:50;-2.90;96.30
18794;DHT22;29610;49.022;12.114;2023-02-28T02:13:47;-2.90;96.30
18794;DHT22;29610;49.022;12.114;2023-02-28T02:16:36;-2.90;96.30
18794;DHT22;29610;49.022;12.114;2023-02-28T02:23:01;-2.90;96.60
18794;DHT22;29610;49.022;12.114;2023-02-28T02:25:53;-3.00;96.40
18794;DHT22;29610;49.022;12.114;2023-02-28T02:28:46;-3.00;96.70
18794;DHT22;29610;49.022;12.114;2023-02-28T02:31:57;-3.00;96.50
18794;DHT22;29610;49.022;12.114;2023-02-28T02:34:55;-3.00;96.70
18794;DHT22;29610;49.022;12.114;2023-02-28T02:37:36;-3.00;96.50
18794;DHT22;29610;49.022;12.114;2023-02-28T02:40:14;-3.00;96.40
18794;DHT22;29610;49.022;12.114;2023-02-28T02:42:51;-3.00;96.80
18794;DHT22;29610;49.022;12.114;2023-02-28T02:45:27;-3.00;96.50
18794;DHT22;29610;49.022;12.114;2023-02-28T02:48:05;-2.90;96.40
18794;DHT22;29610;49.022;12.114;2023-02-28T02:50:42;-3.00;96.40
18794;DHT22;29610;49.022;12.114;2023-02-28T02:53:15;-3.00;96.50
18794;DHT22;29610;49.022;12.114;2023-02-28T02:55:52;-3.00;96.60
18794;DHT22;29610;49.022;12.114;2023-02-28T02:58:26;-3.10;96.50
18794;DHT22;29610;49.022;12.114;2023-02-28T03:01:01;-3.00;96.60
18794;DHT22;29610;49.022;12.114;2023-02-28T03:03:32;-3.00;96.60
18794;DHT22;29610;49.022;12.114;2023-02-28T03:06:04;-3.00;96.50
18794;DHT22;29610;49.022;12.114;2023-02-28T03:08:36;-2.90;96.50
18794;DHT22;29610;49.022;12.114;2023-02-28T03:11:09;-2.90;96.40
18794;DHT22;29610;49.022;12.114;2023-02-28T03:14:05;-2.90;96.40
18794;DHT22;29610;49.022;12.114;2023-02-28T03:17:12;-2.90;96.30
18794;DHT22;29610;49.022;12.114;2023-02-28T03:20:04;-2.90;96.40
18794;DHT22;29610;49.022;12.114;2023-02-28T03:23:00;-2.90;96.50
18794;DHT22;29610;49.022;12.114;2023-02-28T03:25:44;-2.90;96.40
18794;DHT22;29610;49.022;12.114;2023-02-28T03:28:29;-2.90;96.40
18794;DHT22;29610;49.022;12.114;2023-02-28T03:31:08;-2.80;96.40
18794;DHT22;29610;49.022;12.114;2023-02-28T03:33:47;-2.80;96.40
18794;DHT22;29610;49.022;12.114;2023-02-28T03:36:24;-2.80;96.40
18794;DHT22;29610;49.022;12.114;2023-02-28T03:38:58;-2.80;96.30
18794;DHT22;29610;49.022;12.114;2023-02-28T03:41:36;-2.80;96.30
18794;DHT22;29610;49.022;12.114;2023-02-28T03:44:14;-2.80;96.30
18794;DHT22;29610;49.022;12.114;2023-02-28T03:46:51;-2.80;96.30
18794;DHT22;29610;49.022;12.114;2023-02-28T03:49:27;-2.70;96.30
18794;DHT22;29610;49.022;12.114;2023-02-28T03:52:02;-2.80;96.20
18794;DHT22;29610;49.022;12.114;2023-02-28T03:54:41;-2.80;96.20
18794;DHT22;29610;49.022;12.114;2023-02-28T03:57:20;-2.80;96.30
18794;DHT22;29610;49.022;12.114;2023-02-28T03:59:59;-2.80;96.30
18794;DHT22;29610;49.022;12.114;2023-02-28T04:02:38;-2.80;96.30
18794;DHT22;29610;49.022;12.114;2023-02-28T04:05:08;-2.70;96.20
18794;DHT22;29610;49.022;12.114;2023-02-28T04:07:36;-2.70;96.30
18794;DHT22;29610;49.022;12.114;2023-02-28T04:10:08;-2.70;96.20
18794;DHT22;29610;49.022;12.114;2023-02-28T04:12:38;-2.70;96.20
18794;DHT22;29610;49.022;12.114;2023-02-28T04:15:08;-2.70;96.30
18794;DHT22;29610;49.022;12.114;2023-02-28T04:17:37;-2.70;96.20
18794;DHT22;29610;49.022;12.114;2023-02-28T04:20:07;-2.80;96.60
18794;DHT22;29610;49.022;12.114;2023-02-28T04:22:37;-2.80;96.30
18794;DHT22;29610;49.022;12.114;2023-02-28T04:25:08;-2.70;96.40
18794;DHT22;29610;49.022;12.114;2023-02-28T04:27:36;-2.70;96.30
18794;DHT22;29610;49.022;12.114;2023-02-28T04:30:06;-2.70;96.40
18794;DHT22;29610;49.022;12.114;2023-02-28T04:32:35;-2.80;96.40
18794;DHT22;29610;49.022;12.114;2023-02-28T04:35:05;-2.70;96.40
18794;DHT22;29610;49.022;12.114;2023-02-28T04:37:38;-2.70;96.50
18794;DHT22;29610;49.022;12.114;2023-02-28T04:40:09;-2.70;96.40
18794;DHT22;29610;49.022;12.114;2023-02-28T04:42:38;-2.70;96.40
18794;DHT22;29610;49.022;12.114;2023-02-28T04:45:08;-2.70;96.40
18794;DHT22;29610;49.022;12.114;2023-02-28T04:47:37;-2.70;96.40
18794;DHT22;29610;49.022;12.114;2023-02-28T04:50:07;-2.70;96.40
18794;DHT22;29610;49.022;12.114;2023-02-28T04:52:36;-2.70;96.40
18794;DHT22;29610;49.022;12.114;2023-02-28T04:55:06;-2.70;96.40
18794;DHT22;29610;49.022;12.114;2023-02-28T04:57:37;-2.70;96.40
18794;DHT22;29610;49.022;12.114;2023-02-28T05:00:06;-2.70;96.40
18794;DHT22;29610;49.022;12.114;2023-02-28T05:02:38;-2.70;96.30
18794;DHT22;29610;49.022;12.114;2023-02-28T05:05:07;-2.60;96.40
18794;DHT22;29610;49.022;12.114;2023-02-28T05:07:36;-2.60;96.20
18794;DHT22;29610;49.022;12.114;2023-02-28T05:10:06;-2.70;96.20
18794;DHT22;29610;49.022;12.114;2023-02-28T05:12:37;-2.70;96.20
18794;DHT22;29610;49.022;12.114;2023-02-28T05:15:07;-2.60;96.20
18794;DHT22;29610;49.022;12.114;2023-02-28T05:17:40;-2.70;96.20
18794;DHT22;29610;49.022;12.114;2023-02-28T05:20:12;-2.70;96.20
18794;DHT22;29610;49.022;12.114;2023-02-28T05:22:43;-2.70;96.10
18794;DHT22;29610;49.022;12.114;2023-02-28T05:25:16;-2.70;96.10
18794;DHT22;29610;49.022;12.114;2023-02-28T05:27:46;-2.70;96.00
18794;DHT22;29610;49.022;12.114;2023-02-28T05:30:16;-2.80;96.00
18794;DHT22;29610;49.022;12.114;2023-02-28T05:32:50;-2.70;95.90
18794;DHT22;29610;49.022;12.114;2023-02-28T05:35:19;-2.70;95.90
18794;DHT22;29610;49.022;12.114;2023-02-28T05:37:48;-2.70;95.80
18794;DHT22;29610;49.022;12.114;2023-02-28T05:40:18;-2.70;95.70
18794;DHT22;29610;49.022;12.114;2023-02-28T05:42:48;-2.70;95.60
18794;DHT22;29610;49.022;12.114;2023-02-28T05:45:18;-2.70;95.40
18794;DHT22;29610;49.022;12.114;2023-02-28T05:47:46;-2.70;95.30
18794;DHT22;29610;49.022;12.114;2023-02-28T05:50:15;-2.60;95.30
18794;DHT22;29610;49.022;12.114;2023-02-28T05:52:44;-2.60;95.10
18794;DHT22;29610;49.022;12.114;2023-02-28T05:55:19;-2.60;94.90
18794;DHT22;29610;49.022;12.114;2023-02-28T05:57:47;-2.60;94.80
18794;DHT22;29610;49.022;12.114;2023-02-28T06:00:17;-2.60;94.70
18794;DHT22;29610;49.022;12.114;2023-02-28T06:02:46;-2.60;94.50
18794;DHT22;29610;49.022;12.114;2023-02-28T06:05:15;-2.50;94.30
18794;DHT22;29610;49.022;12.114;2023-02-28T06:07:45;-2.50;94.20
18794;DHT22;29610;49.022;12.114;2023-02-28T06:10:14;-2.40;94.10
18794;DHT22;29610;49.022;12.114;2023-02-28T06:12:44;-2.40;93.90
18794;DHT22;29610;49.022;12.114;2023-02-28T06:15:14;-2.40;93.60
18794;DHT22;29610;49.022;12.114;2023-02-28T06:17:44;-2.40;93.60
18794;DHT22;29610;49.022;12.114;2023-02-28T06:20:13;-2.40;93.50
18794;DHT22;29610;49.022;12.114;2023-02-28T06:22:43;-2.40;93.40
18794;DHT22;29610;49.022;12.114;2023-02-28T06:25:12;-2.40;93.30
18794;DHT22;29610;49.022;12.114;2023-02-28T06:27:40;-2.40;93.30
18794;DHT22;29610;49.022;12.114;2023-02-28T06:30:12;-2.30;93.20
18794;DHT22;29610;49.022;12.114;2023-02-28T06:32:41;-2.30;92.90
18794;DHT22;29610;49.022;12.114;2023-02-28T06:35:10;-2.30;92.80
18794;DHT22;29610;49.022;12.114;2023-02-28T06:37:39;-2.30;92.60
18794;DHT22;29610;49.022;12.114;2023-02-28T06:40:10;-2.20;92.30
18794;DHT22;29610;49.022;12.114;2023-02-28T06:42:41;-2.10;92.10
18794;DHT22;29610;49.022;12.114;2023-02-28T06:45:12;-2.10;92.00
18794;DHT22;29610;49.022;12.114;2023-02-28T06:47:43;-2.10;91.80
18794;DHT22;29610;49.022;12.114;2023-02-28T06:50:12;-2.00;91.70
18794;DHT22;29610;49.022;12.114;2023-02-28T06:52:41;-2.00;91.50
18794;DHT22;29610;49.022;12.114;2023-02-28T06:55:09;-2.00;91.30
18794;DHT22;29610;49.022;12.114;2023-02-28T06:57:38;-1.90;91.20
18794;DHT22;29610;49.022;12.114;2023-02-28T07:00:09;-1.90;91.00
18794;DHT22;29610;49.022;12.114;2023-02-28T07:02:39;-1.80;90.90
18794;DHT22;29610;49.022;12.114;2023-02-28T07:05:08;-1.80;90.90
18794;DHT22;29610;49.022;12.114;2023-02-28T07:07:37;-1.70;90.60
18794;DHT22;29610;49.022;12.114;2023-02-28T07:10:10;-1.70;90.40
18794;DHT22;29610;49.022;12.114;2023-02-28T07:12:40;-1.70;90.40
18794;DHT22;29610;49.022;12.114;2023-02-28T07:15:09;-1.70;90.30
18794;DHT22;29610;49.022;12.114;2023-02-28T07:17:40;-1.60;90.40
18794;DHT22;29610;49.022;12.114;2023-02-28T07:20:09;-1.50;90.30
18794;DHT22;29610;49.022;12.114;2023-02-28T07:22:38;-1.50;90.40
18794;DHT22;29610;49.022;12.114;2023-02-28T07:25:08;-1.40;90.50
18794;DHT22;29610;49.022;12.114;2023-02-28T07:27:37;-1.40;90.20
18794;DHT22;29610;49.022;12.114;2023-02-28T07:30:08;-1.30;90.50
18794;DHT22;29610;49.022;12.114;2023-02-28T07:32:40;-1.30;90.40
18794;DHT22;29610;49.022;12.114;2023-02-28T07:35:11;-1.20;90.60
18794;DHT22;29610;49.022;12.114;2023-02-28T07:37:40;-1.10;90.40
18794;DHT22;29610;49.022;12.114;2023-02-28T07:40:11;-1.10;90.40
18794;DHT22;29610;49.022;12.114;2023-02-28T07:42:41;-1.00;90.50
18794;DHT22;29610;49.022;12.114;2023-02-28T07:45:11;-1.00;90.50
18794;DHT22;29610;49.022;12.114;2023-02-28T07:47:42;-1.00;90.50
18794;DHT22;29610;49.022;12.114;2023-02-28T07:50:13;-0.90;90.50
18794;DHT22;29610;49.022;12.114;2023-02-28T07:52:43;-0.90;90.60
18794;DHT22;29610;49.022;12.114;2023-02-28T07:55:11;-0.70;90.60
18794;DHT22;29610;49.022;12.114;2023-02-28T07:57:41;-0.70;90.50
18794;DHT22;29610;49.022;12.114;2023-02-28T08:00:11;-0.70;90.20
18794;DHT22;29610;49.022;12.114;2023-02-28T08:02:42;-0.60;90.30
18794;DHT22;29610;49.022;12.114;2023-02-28T08:05:10;-0.50;90.30
18794;DHT22;29610;49.022;12.114;2023-02-28T08:07:39;-0.40;90.20
18794;DHT22;29610;49.022;12.114;2023-02-28T08:10:09;-0.50;90.00
18794;DHT22;29610;49.022;12.114;2023-02-28T08:12:38;-0.40;90.10
18794;DHT22;29610;49.022;12.114;2023-02-28T08:15:08;-0.40;89.70
18794;DHT22;29610;49.022;12.114;2023-02-28T08:17:37;-0.40;89.70
18794;DHT22;29610;49.022;12.114;2023-02-28T08:20:08;-0.30;89.20
18794;DHT22;29610;49.022;12.114;2023-02-28T08:22:38;-0.30;89.50
18794;DHT22;29610;49.022;12.114;2023-02-28T08:25:11;-0.20;88.80
18794;DHT22;29610;49.022;12.114;2023-02-28T08:27:40;-0.10;89.40
18794;DHT22;29610;49.022;12.114;2023-02-28T08:30:10;0.00;88.60
18794;DHT22;29610;49.022;12.114;2023-02-28T08:32:40;-0.10;88.40
18794;DHT22;29610;49.022;12.114;2023-02-28T08:35:11;0.00;88.00
18794;DHT22;29610;49.022;12.114;2023-02-28T08:37:40;0.10;88.30
18794;DHT22;29610;49.022;12.114;2023-02-28T08:40:09;0.20;87.80
18794;DHT22;29610;49.022;12.114;2023-02-28T08:42:40;0.20;86.80
18794;DHT22;29610;49.022;12.114;2023-02-28T08:45:10;0.10;86.90
18794;DHT22;29610;49.022;12.114;2023-02-28T08:47:39;0.20;87.80
18794;DHT22;29610;49.022;12.114;2023-02-28T08:50:08;0.30;86.20
18794;DHT22;29610;49.022;12.114;2023-02-28T08:52:42;0.30;86.20
18794;DHT22;29610;49.022;12.114;2023-02-28T08:55:11;0.30;86.30
18794;DHT22;29610;49.022;12.114;2023-02-28T08:57:40;0.40;85.60
18794;DHT22;29610;49.022;12.114;2023-02-28T09:00:10;0.40;85.20
18794;DHT22;29610;49.022;12.114;2023-02-28T09:02:40;0.40;84.70
18794;DHT22;29610;49.022;12.114;2023-02-28T09:05:12;0.40;85.20
18794;DHT22;29610;49.022;12.114;2023-02-28T09:07:40;0.50;84.80
18794;DHT22;29610;49.022;12.114;2023-02-28T09:10:10;0.50;85.50
18794;DHT22;29610;49.022;12.114;2023-02-28T09:12:39;0.60;85.10
18794;DHT22;29610;49.022;12.114;2023-02-28T09:15:08;0.70;85.00
18794;DHT22;29610;49.022;12.114;2023-02-28T09:17:38;0.70;84.30
18794;DHT22;29610;49.022;12.114;2023-02-28T09:20:08;0.70;84.00
18794;DHT22;29610;49.022;12.114;2023-02-28T09:22:39;0.70;83.40
18794;DHT22;29610;49.022;12.114;2023-02-28T09:25:08;1.20;83.90
18794;DHT22;29610;49.022;12.114;2023-02-28T09:27:36;0.90;84.00
18794;DHT22;29610;49.022;12.114;2023-02-28T09:30:06;0.90;83.30
18794;DHT22;29610;49.022;12.114;2023-02-28T09:32:36;1.10;83.80
18794;DHT22;29610;49.022;12.114;2023-02-28T09:35:05;1.10;83.40
18794;DHT22;29610;49.022;12.114;2023-02-28T09:37:41;1.10;82.80
18794;DHT22;29610;49.022;12.114;2023-02-28T09:40:11;1.10;83.40
18794;DHT22;29610;49.022;12.114;2023-02-28T09:42:46;1.30;82.90
18794;DHT22;29610;49.022;12.114;2023-02-28T09:45:24;1.40;83.10
18794;DHT22;29610;49.022;12.114;2023-02-28T09:48:00;1.40;82.00
18794;DHT22;29610;49.022;12.114;2023-02-28T09:50:35;1.30;82.20
18794;DHT22;29610;49.022;12.114;2023-02-28T09:53:14;2.80;84.40
18794;DHT22;29610;49.022;12.114;2023-02-28T09:55:52;1.50;82.80
18794;DHT22;29610;49.022;12.114;2023-02-28T09:58:30;1.70;81.50
18794;DHT22;29610;49.022;12.114;2023-02-28T10:01:10;1.00;80.30
18794;DHT22;29610;49.022;12.114;2023-02-28T10:03:50;1.90;81.40
18794;DHT22;29610;49.022;12.114;2023-02-28T10:06:28;1.80;80.20
18794;DHT22;29610;49.022;12.114;2023-02-28T10:09:04;1.70;81.50
18794;DHT22;29610;49.022;12.114;2023-02-28T10:11:40;1.80;82.00
18794;DHT22;29610;49.022;12.114;2023-02-28T10:14:19;1.80;80.90
18794;DHT22;29610;49.022;12.114;2023-02-28T10:16:53;1.70;80.10
18794;DHT22;29610;49.022;12.114;2023-02-28T10:19:28;1.60;80.70
18794;DHT22;29610;49.022;12.114;2023-02-28T10:22:05;1.60;80.60
18794;DHT22;29610;49.022;12.114;2023-02-28T10:24:42;1.60;80.70
18794;DHT22;29610;49.022;12.114;2023-02-28T10:27:14;1.70;81.00
18794;DHT22;29610;49.022;12.114;2023-02-28T10:29:46;1.90;81.20
18794;DHT22;29610;49.022;12.114;2023-02-28T10:32:19;2.10;79.90
18794;DHT22;29610;49.022;12.114;2023-02-28T10:34:52;2.10;79.40
18794;DHT22;29610;49.022;12.114;2023-02-28T10:37:27;2.00;79.50
18794;DHT22;29610;49.022;12.114;2023-02-28T10:39:58;2.10;79.60
18794;DHT22;29610;49.022;12.114;2023-02-28T10:42:28;2.10;79.90
18794;DHT22;29610;49.022;12.114;2023-02-28T10:45:11;2.10;79.80
18794;DHT22;29610;49.022;12.114;2023-02-28T10:47:53;2.20;79.70
18794;DHT22;29610;49.022;12.114;2023-02-28T10:50:33;1.90;79.30
18794;DHT22;29610;49.022;12.114;2023-02-28T10:53:28;1.80;79.80
18794;DHT22;29610;49.022;12.114;2023-02-28T10:56:25;2.00;80.00
18794;DHT22;29610;49.022;12.114;2023-02-28T10:58:56;2.40;80.50
18794;DHT22;29610;49.022;12.114;2023-02-28T11:01:36;2.40;78.50
18794;DHT22;29610;49.022;12.114;2023-02-28T11:04:18;2.50;79.20
18794;DHT22;29610;49.022;12.114;2023-02-28T11:06:58;2.60;78.70
18794;DHT22;29610;49.022;12.114;2023-02-28T11:09:32;2.60;78.60
18794;DHT22;29610;49.022;12.114;2023-02-28T11:12:06;2.70;78.10
18794;DHT22;29610;49.022;12.114;2023-02-28T11:14:49;2.70;78.10
18794;DHT22;29610;49.022;12.114;2023-02-28T11:17:21;2.90;78.70
18794;DHT22;29610;49.022;12.114;2023-02-28T11:19:54;3.00;78.30
18794;DHT22;29610;49.022;12.114;2023-02-28T11:22:27;2.80;77.10
18794;DHT22;29610;49.022;12.114;2023-02-28T11:25:02;2.90;77.90
18794;DHT22;29610;49.022;12.114;2023-02-28T11:27:51;3.00;76.60
18794;DHT22;29610;49.022;12.114;2023-02-28T11:30:26;3.00;77.40
18794;DHT22;29610;49.022;12.114;2023-02-28T11:33:22;3.40;77.50
18794;DHT22;29610;49.022;12.114;2023-02-28T11:35:58;3.50;75.00
18794;DHT22;29610;49.022;12.114;2023-02-28T11:38:37;3.30;75.90
18794;DHT22;29610;49.022;12.114;2023-02-28T11:41:21;3.40;77.00
18794;DHT22;29610;49.022;12.114;2023-02-28T11:44:23;3.50;76.30
18794;DHT22;29610;49.022;12.114;2023-02-28T11:47:07;3.30;75.50
18794;DHT22;29610;49.022;12.114;2023-02-28T11:49:47;3.40;76.00
18794;DHT22;29610;49.022;12.114;2023-02-28T11:52:36;3.60;75.20
18794;DHT22;29610;49.022;12.114;2023-02-28T11:55:17;3.40;74.70
18794;DHT22;29610;49.022;12.114;2023-02-28T11:58:02;3.40;75.90
18794;DHT22;29610;49.022;12.114;2023-02-28T12:01:09;3.60;75.60
18794;DHT22;29610;49.022;12.114;2023-02-28T12:04:03;4.20;74.80
18794;DHT22;29610;49.022;12.114;2023-02-28T12:06:45;4.00;74.10
18794;DHT22;29610;49.022;12.114;2023-02-28T12:09:34;4.00;72.90
18794;DHT22;29610;49.022;12.114;2023-02-28T12:12:21;3.90;74.60
18794;DHT22;29610;49.022;12.114;2023-02-28T12:15:21;3.70;73.60
18794;DHT22;29610;49.022;12.114;2023-02-28T12:18:10;3.80;74.80
18794;DHT22;29610;49.022;12.114;2023-02-28T12:21:02;3.90;73.90
18794;DHT22;29610;49.022;12.114;2023-02-28T12:24:03;3.90;74.00
18794;DHT22;29610;49.022;12.114;2023-02-28T12:26:45;3.90;74.00
18794;DHT22;29610;49.022;12.114;2023-02-28T12:29:19;4.00;73.80
18794;DHT22;29610;49.022;12.114;2023-02-28T12:31:55;4.20;74.20
18794;DHT22;29610;49.022;12.114;2023-02-28T12:34:33;4.40;73.10
18794;DHT22;29610;49.022;12.114;2023-02-28T12:37:09;4.70;73.70
18794;DHT22;29610;49.022;12.114;2023-02-28T12:39:45;4.80;71.30
18794;DHT22;29610;49.022;12.114;2023-02-28T12:42:21;4.80;71.50
18794;DHT22;29610;49.022;12.114;2023-02-28T12:44:59;4.60;71.20
18794;DHT22;29610;49.022;12.114;2023-02-28T12:47:38;4.60;71.80
18794;DHT22;29610;49.022;12.114;2023-02-28T12:50:12;4.90;71.50
18794;DHT22;29610;49.022;12.114;2023-02-28T12:52:47;6.00;72.20
18794;DHT22;29610;49.022;12.114;2023-02-28T12:55:29;4.60;70.30
18794;DHT22;29610;49.022;12.114;2023-02-28T12:58:09;4.50;71.80
18794;DHT22;29610;49.022;12.114;2023-02-28T13:00:58;4.60;71.30
18794;DHT22;29610;49.022;12.114;2023-02-28T13:03:52;4.20;71.30
18794;DHT22;29610;49.022;12.114;2023-02-28T13:06:59;4.30;72.00
18794;DHT22;29610;49.022;12.114;2023-02-28T13:09:39;4.80;72.60
18794;DHT22;29610;49.022;12.114;2023-02-28T13:12:13;5.10;71.50
18794;DHT22;29610;49.022;12.114;2023-02-28T13:14:43;4.90;70.80
18794;DHT22;29610;49.022;12.114;2023-02-28T13:17:17;5.20;71.30
18794;DHT22;29610;49.022;12.114;2023-02-28T13:19:57;4.90;68.90
18794;DHT22;29610;49.022;12.114;2023-02-28T13:22:40;4.90;71.10
18794;DHT22;29610;49.022;12.114;2023-02-28T13:32:19;4.70;72.90
18794;DHT22;29610;49.022;12.114;2023-02-28T13:38:22;4.90;71.30
18794;DHT22;29610;49.022;12.114;2023-02-28T13:44:17;4.50;72.80
18794;DHT22;29610;49.022;12.114;2023-02-28T13:47:21;4.60;72.90
18794;DHT22;29610;49.022;12.114;2023-02-28T13:50:14;4.40;72.40
18794;DHT22;29610;49.022;12.114;2023-02-28T13:53:03;4.40;72.10
18794;DHT22;29610;49.022;12.114;2023-02-28T13:55:58;3.70;72.20
18794;DHT22;29610;49.022;12.114;2023-02-28T13:58:43;4.30;73.00
18794;DHT22;29610;49.022;12.114;2023-02-28T14:01:42;4.50;73.40
18794;DHT22;29610;49.022;12.114;2023-02-28T14:07:42;4.70;71.90
18794;DHT22;29610;49.022;12.114;2023-02-28T14:10:23;4.60;71.70
18794;DHT22;29610;49.022;12.114;2023-02-28T14:12:59;4.10;72.90
18794;DHT22;29610;49.022;12.114;2023-02-28T14:15:49;4.20;73.20
18794;DHT22;29610;49.022;12.114;2023-02-28T14:18:27;4.00;72.40
18794;DHT22;29610;49.022;12.114;2023-02-28T14:21:14;3.90;73.10
18794;DHT22;29610;49.022;12.114;2023-02-28T14:24:19;4.00;73.10
18794;DHT22;29610;49.022;12.114;2023-02-28T14:27:34;4.00;73.40
18794;DHT22;29610;49.022;12.114;2023-02-28T14:30:20;4.00;73.80
18794;DHT22;29610;49.022;12.114;2023-02-28T14:33:18;4.00;73.50
18794;DHT22;29610;49.022;12.114;2023-02-28T14:36:03;3.90;74.30
18794;DHT22;29610;49.022;12.114;2023-02-28T14:38:39;4.10;73.70
18794;DHT22;29610;49.022;12.114;2023-02-28T14:41:22;4.30;73.20
18794;DHT22;29610;49.022;12.114;2023-02-28T14:43:54;4.30;73.20
18794;DHT22;29610;49.022;12.114;2023-02-28T14:46:28;4.20;73.20
18794;DHT22;29610;49.022;12.114;2023-02-28T14:49:06;4.00;73.30
18794;DHT22;29610;49.022;12.114;2023-02-28T14:51:44;4.00;74.40
18794;DHT22;29610;49.022;12.114;2023-02-28T14:54:16;3.90;74.30
18794;DHT22;29610;49.022;12.114;2023-02-28T14:56:51;3.90;74.90
18794;DHT22;29610;49.022;12.114;2023-02-28T14:59:24;3.90;75.50
18794;DHT22;29610;49.022;12.114;2023-02-28T15:02:18;4.10;74.30
18794;DHT22;29610;49.022;12.114;2023-02-28T15:04:56;4.10;74.40
18794;DHT22;29610;49.022;12.114;2023-02-28T15:07:27;4.00;74.10
18794;DHT22;29610;49.022;12.114;2023-02-28T15:10:16;4.00;74.80
18794;DHT22;29610;49.022;12.114;2023-02-28T15:12:53;3.90;75.30
18794;DHT22;29610;49.022;12.114;2023-02-28T15:15:26;3.70;76.00
18794;DHT22;29610;49.022;12.114;2023-02-28T15:18:14;3.80;76.20
18794;DHT22;29610;49.022;12.114;2023-02-28T15:20:50;3.80;76.00
18794;DHT22;29610;49.022;12.114;2023-02-28T15:23:21;3.70;75.00
18794;DHT22;29610;49.022;12.114;2023-02-28T15:25:51;3.50;76.10
18794;DHT22;29610;49.022;12.114;2023-02-28T15:28:22;3.40;75.70
18794;DHT22;29610;49.022;12.114;2023-02-28T15:30:55;3.40;76.20
18794;DHT22;29610;49.022;12.114;2023-02-28T15:33:29;3.30;76.80
18794;DHT22;29610;49.022;12.114;2023-02-28T15:36:14;3.20;76.80
18794;DHT22;29610;49.022;12.114;2023-02-28T15:38:44;3.10;77.00
18794;DHT22;29610;49.022;12.114;2023-02-28T15:41:24;3.10;76.50
18794;DHT22;29610;49.022;12.114;2023-02-28T15:44:15;3.00;77.00
18794;DHT22;29610;49.022;12.114;2023-02-28T15:46:55;2.90;77.20
18794;DHT22;29610;49.022;12.114;2023-02-28T15:49:37;2.80;77.10
18794;DHT22;29610;49.022;12.114;2023-02-28T15:52:15;2.70;77.30
18794;DHT22;29610;49.022;12.114;2023-02-28T15:54:46;2.60;77.40
18794;DHT22;29610;49.022;12.114;2023-02-28T15:57:18;2.60;78.70
18794;DHT22;29610;49.022;12.114;2023-02-28T15:59:52;2.50;78.20
18794;DHT22;29610;49.022;12.114;2023-02-28T16:02:30;2.50;78.40
18794;DHT22;29610;49.022;12.114;2023-02-28T16:05:21;2.50;79.00
18794;DHT22;29610;49.022;12.114;2023-02-28T16:07:56;2.50;78.70
18794;DHT22;29610;49.022;12.114;2023-02-28T16:10:26;2.40;79.40
18794;DHT22;29610;49.022;12.114;2023-02-28T16:12:56;2.30;79.20
18794;DHT22;29610;49.022;12.114;2023-02-28T16:15:27;2.30;79.70
18794;DHT22;29610;49.022;12.114;2023-02-28T16:17:59;2.20;79.70
18794;DHT22;29610;49.022;12.114;2023-02-28T16:23:31;2.10;80.40
18794;DHT22;29610;49.022;12.114;2023-02-28T16:25:59;2.00;80.50
18794;DHT22;29610;49.022;12.114;2023-02-28T16:28:32;2.00;81.00
18794;DHT22;29610;49.022;12.114;2023-02-28T16:31:05;1.90;80.80
18794;DHT22;29610;49.022;12.114;2023-02-28T16:33:35;1.90;81.10
18794;DHT22;29610;49.022;12.114;2023-02-28T16:36:06;2.00;81.30